sensor_id;sensor_type;location;lat;lon;timestamp;pressure;altitude;pressure_sealevel;temperature;humidity
73629;BME280;61924;53.268;-2.458;2023-02-18T00:01:36;101415.29;;;15.19;30.79
73629;BME280;61924;53.268;-2.458;2023-02-18T00:04:02;101407.65;;;14.79;30.90
73629;BME280;61924;53.268;-2.458;2023-02-18T00:06:32;101408.90;;;14.65;30.97
73629;BME280;61924;53.268;-2.458;2023-02-18T00:08:54;101411.65;;;14.79;31.07
73629;BME280;61924;53.268;-2.458;2023-02-18T00:11:20;101401.61;;;15.01;30.87
73629;BME280;61924;53.268;-2.458;2023-02-18T00:13:49;101388.12;;;14.96;30.80
73629;BME280;61924;53.268;-2.458;2023-02-18T00:16:11;101387.18;;;14.99;30.96
73629;BME280;61924;53.268;-2.458;2023-02-18T00:18:35;101387.52;;;14.89;31.03
73629;BME280;61924;53.268;-2.458;2023-02-18T00:21:03;101388.88;;;14.95;30.87
73629;BME280;61924;53.268;-2.458;2023-02-18T00:23:26;101403.02;;;14.69;30.93
73629;BME280;61924;53.268;-2.458;2023-02-18T00:25:59;101410.85;;;15.14;30.72
73629;BME280;61924;53.268;-2.458;2023-02-18T00:28:17;101406.52;;;14.96;30.82
73629;BME280;61924;53.268;-2.458;2023-02-18T00:30:43;101406.13;;;14.82;30.86
73629;BME280;61924;53.268;-2.458;2023-02-18T00:33:08;101403.28;;;14.93;30.81
73629;BME280;61924;53.268;-2.458;2023-02-18T00:35:33;101399.10;;;15.62;30.74
73629;BME280;61924;53.268;-2.458;2023-02-18T00:37:59;101409.20;;;15.16;30.73
73629;BME280;61924;53.268;-2.458;2023-02-18T00:40:25;101420.18;;;15.01;30.77
73629;BME280;61924;53.268;-2.458;2023-02-18T00:42:51;101408.87;;;14.73;30.82
73629;BME280;61924;53.268;-2.458;2023-02-18T00:45:16;101398.95;;;14.80;30.83
73629;BME280;61924;53.268;-2.458;2023-02-18T00:47:42;101403.53;;;14.70;30.84
73629;BME280;61924;53.268;-2.458;2023-02-18T00:50:09;101398.11;;;14.63;30.96
73629;BME280;61924;53.268;-2.458;2023-02-18T00:52:33;101389.84;;;15.43;30.72
73629;BME280;61924;53.268;-2.458;2023-02-18T00:54:59;101390.14;;;14.94;30.77
73629;BME280;61924;53.268;-2.458;2023-02-18T00:57:24;101381.30;;;14.93;30.71
73629;BME280;61924;53.268;-2.458;2023-02-18T00:59:49;101398.45;;;14.87;30.74
73629;BME280;61924;53.268;-2.458;2023-02-18T01:02:15;101397.13;;;14.54;30.84
73629;BME280;61924;53.268;-2.458;2023-02-18T01:04:40;101395.30;;;15.30;30.65
73629;BME280;61924;53.268;-2.458;2023-02-18T01:07:07;101396.96;;;14.83;30.79
73629;BME280;61924;53.268;-2.458;2023-02-18T01:09:32;101398.05;;;14.91;30.70
73629;BME280;61924;53.268;-2.458;2023-02-18T01:11:57;101385.94;;;14.76;30.78
73629;BME280;61924;53.268;-2.458;2023-02-18T01:14:23;101379.92;;;14.82;30.71
73629;BME280;61924;53.268;-2.458;2023-02-18T01:16:48;101389.24;;;15.18;30.71
73629;BME280;61924;53.268;-2.458;2023-02-18T01:19:13;101389.37;;;14.75;30.80
73629;BME280;61924;53.268;-2.458;2023-02-18T01:21:39;101385.19;;;15.01;30.79
73629;BME280;61924;53.268;-2.458;2023-02-18T01:24:05;101391.44;;;15.07;30.72
73629;BME280;61924;53.268;-2.458;2023-02-18T01:26:30;101387.72;;;14.83;30.73
73629;BME280;61924;53.268;-2.458;2023-02-18T01:28:55;101382.66;;;15.04;30.67
73629;BME280;61924;53.268;-2.458;2023-02-18T01:31:21;101386.23;;;14.26;30.88
73629;BME280;61924;53.268;-2.458;2023-02-18T01:33:47;101383.36;;;14.79;30.87
73629;BME280;61924;53.268;-2.458;2023-02-18T01:36:12;101375.89;;;14.99;30.62
73629;BME280;61924;53.268;-2.458;2023-02-18T01:38:37;101372.24;;;14.78;30.66
73629;BME280;61924;53.268;-2.458;2023-02-18T01:41:03;101370.11;;;15.21;30.52
73629;BME280;61924;53.268;-2.458;2023-02-18T01:43:28;101373.79;;;14.91;30.63
73629;BME280;61924;53.268;-2.458;2023-02-18T01:45:58;101366.76;;;14.89;30.58
73629;BME280;61924;53.268;-2.458;2023-02-18T01:48:22;101362.53;;;14.44;31.08
73629;BME280;61924;53.268;-2.458;2023-02-18T01:50:48;101353.59;;;14.94;30.71
73629;BME280;61924;53.268;-2.458;2023-02-18T01:53:11;101353.69;;;14.82;30.69
73629;BME280;61924;53.268;-2.458;2023-02-18T01:55:36;101341.78;;;15.32;30.63
73629;BME280;61924;53.268;-2.458;2023-02-18T01:58:01;101349.79;;;14.37;30.93
73629;BME280;61924;53.268;-2.458;2023-02-18T02:00:26;101357.02;;;14.69;30.81
73629;BME280;61924;53.268;-2.458;2023-02-18T02:02:52;101356.35;;;15.02;30.76
73629;BME280;61924;53.268;-2.458;2023-02-18T02:05:18;101351.84;;;14.23;30.90
73629;BME280;61924;53.268;-2.458;2023-02-18T02:07:43;101338.24;;;14.66;30.84
73629;BME280;61924;53.268;-2.458;2023-02-18T02:10:09;101339.24;;;14.31;30.93
73629;BME280;61924;53.268;-2.458;2023-02-18T02:12:44;101338.21;;;14.76;30.74
73629;BME280;61924;53.268;-2.458;2023-02-18T02:15:11;101336.27;;;14.22;31.05
73629;BME280;61924;53.268;-2.458;2023-02-18T02:17:33;101328.50;;;14.40;30.87
73629;BME280;61924;53.268;-2.458;2023-02-18T02:22:03;101329.84;;;14.80;31.21
73629;BME280;61924;53.268;-2.458;2023-02-18T02:24:23;101325.11;;;14.09;31.59
73629;BME280;61924;53.268;-2.458;2023-02-18T02:26:56;101315.31;;;14.11;31.35
73629;BME280;61924;53.268;-2.458;2023-02-18T02:29:53;101312.68;;;13.90;31.50
73629;BME280;61924;53.268;-2.458;2023-02-18T02:31:44;101306.22;;;14.10;31.51
73629;BME280;61924;53.268;-2.458;2023-02-18T02:34:22;101302.22;;;13.90;31.50
73629;BME280;61924;53.268;-2.458;2023-02-18T02:36:22;101304.03;;;14.13;31.32
73629;BME280;61924;53.268;-2.458;2023-02-18T02:38:49;101300.75;;;14.18;31.32
73629;BME280;61924;53.268;-2.458;2023-02-18T02:41:17;101303.24;;;14.38;31.12
73629;BME280;61924;53.268;-2.458;2023-02-18T02:43:40;101303.22;;;14.02;31.26
73629;BME280;61924;53.268;-2.458;2023-02-18T02:46:02;101309.76;;;13.91;31.20
73629;BME280;61924;53.268;-2.458;2023-02-18T02:48:31;101306.76;;;13.84;31.24
73629;BME280;61924;53.268;-2.458;2023-02-18T02:50:54;101304.65;;;14.17;31.10
73629;BME280;61924;53.268;-2.458;2023-02-18T02:53:18;101303.62;;;14.42;30.89
73629;BME280;61924;53.268;-2.458;2023-02-18T02:55:41;101302.12;;;13.81;31.20
73629;BME280;61924;53.268;-2.458;2023-02-18T02:58:08;101296.53;;;14.25;30.87
73629;BME280;61924;53.268;-2.458;2023-02-18T03:00:39;101301.76;;;14.29;30.96
73629;BME280;61924;53.268;-2.458;2023-02-18T03:03:14;101297.83;;;14.14;30.92
73629;BME280;61924;53.268;-2.458;2023-02-18T03:05:32;101297.20;;;14.03;31.02
73629;BME280;61924;53.268;-2.458;2023-02-18T03:08:03;101293.49;;;14.56;30.92
73629;BME280;61924;53.268;-2.458;2023-02-18T03:10:26;101285.78;;;14.05;30.92
73629;BME280;61924;53.268;-2.458;2023-02-18T03:12:47;101280.95;;;14.12;31.09
73629;BME280;61924;53.268;-2.458;2023-02-18T03:15:11;101281.03;;;13.71;31.13
73629;BME280;61924;53.268;-2.458;2023-02-18T03:17:35;101279.23;;;14.25;30.95
73629;BME280;61924;53.268;-2.458;2023-02-18T03:20:01;101272.92;;;14.13;31.05
73629;BME280;61924;53.268;-2.458;2023-02-18T03:22:24;101265.21;;;14.17;30.88
73629;BME280;61924;53.268;-2.458;2023-02-18T03:24:49;101262.01;;;14.19;30.85
73629;BME280;61924;53.268;-2.458;2023-02-18T03:27:14;101272.45;;;13.51;31.12
73629;BME280;61924;53.268;-2.458;2023-02-18T03:29:38;101255.32;;;14.12;30.92
73629;BME280;61924;53.268;-2.458;2023-02-18T03:32:06;101249.61;;;13.76;30.94
73629;BME280;61924;53.268;-2.458;2023-02-18T03:34:31;101253.11;;;13.95;30.96
73629;BME280;61924;53.268;-2.458;2023-02-18T03:36:54;101247.63;;;13.87;30.93
73629;BME280;61924;53.268;-2.458;2023-02-18T03:39:20;101232.45;;;14.09;30.93
73629;BME280;61924;53.268;-2.458;2023-02-18T03:41:45;101242.42;;;13.84;30.91
73629;BME280;61924;53.268;-2.458;2023-02-18T03:44:10;101235.56;;;13.25;30.97
73629;BME280;61924;53.268;-2.458;2023-02-18T03:46:37;101239.31;;;13.72;30.98
73629;BME280;61924;53.268;-2.458;2023-02-18T03:49:00;101236.58;;;13.81;30.92
73629;BME280;61924;53.268;-2.458;2023-02-18T03:51:25;101236.33;;;13.86;30.88
73629;BME280;61924;53.268;-2.458;2023-02-18T03:53:51;101229.85;;;13.67;30.90
73629;BME280;61924;53.268;-2.458;2023-02-18T03:56:17;101231.92;;;13.88;30.89
73629;BME280;61924;53.268;-2.458;2023-02-18T03:58:42;101233.11;;;13.66;31.01
73629;BME280;61924;53.268;-2.458;2023-02-18T04:01:07;101237.51;;;13.29;31.11
73629;BME280;61924;53.268;-2.458;2023-02-18T04:03:32;101236.06;;;13.23;31.02
73629;BME280;61924;53.268;-2.458;2023-02-18T04:05:58;101225.18;;;13.78;30.83
73629;BME280;61924;53.268;-2.458;2023-02-18T04:08:24;101235.42;;;14.11;30.72
73629;BME280;61924;53.268;-2.458;2023-02-18T04:10:49;101246.78;;;13.23;31.04
73629;BME280;61924;53.268;-2.458;2023-02-18T04:13:14;101253.88;;;13.33;31.12
73629;BME280;61924;53.268;-2.458;2023-02-18T04:15:39;101255.23;;;13.75;30.86
73629;BME280;61924;53.268;-2.458;2023-02-18T04:18:05;101248.72;;;13.84;30.89
73629;BME280;61924;53.268;-2.458;2023-02-18T04:20:30;101262.64;;;13.80;30.93
73629;BME280;61924;53.268;-2.458;2023-02-18T04:22:56;101252.15;;;13.59;30.96
73629;BME280;61924;53.268;-2.458;2023-02-18T04:25:21;101267.31;;;13.84;30.81
73629;BME280;61924;53.268;-2.458;2023-02-18T04:27:46;101269.13;;;14.04;30.83
73629;BME280;61924;53.268;-2.458;2023-02-18T04:30:13;101269.81;;;14.13;30.82
73629;BME280;61924;53.268;-2.458;2023-02-18T04:32:37;101271.96;;;13.50;30.97
73629;BME280;61924;53.268;-2.458;2023-02-18T04:35:03;101261.63;;;13.35;30.99
73629;BME280;61924;53.268;-2.458;2023-02-18T04:37:28;101274.26;;;13.91;30.81
73629;BME280;61924;53.268;-2.458;2023-02-18T04:39:54;101271.35;;;13.70;30.75
73629;BME280;61924;53.268;-2.458;2023-02-18T04:42:19;101272.19;;;13.39;30.98
73629;BME280;61924;53.268;-2.458;2023-02-18T04:44:45;101272.42;;;13.95;30.73
73629;BME280;61924;53.268;-2.458;2023-02-18T04:47:11;101267.82;;;13.30;31.03
73629;BME280;61924;53.268;-2.458;2023-02-18T04:49:36;101259.19;;;13.62;30.98
73629;BME280;61924;53.268;-2.458;2023-02-18T04:52:02;101257.44;;;13.44;30.89
73629;BME280;61924;53.268;-2.458;2023-02-18T04:54:27;101266.81;;;13.68;30.87
73629;BME280;61924;53.268;-2.458;2023-02-18T04:56:52;101251.80;;;13.53;31.04
73629;BME280;61924;53.268;-2.458;2023-02-18T04:59:17;101255.22;;;13.51;30.83
73629;BME280;61924;53.268;-2.458;2023-02-18T05:01:43;101251.38;;;13.45;30.89
73629;BME280;61924;53.268;-2.458;2023-02-18T05:04:08;101257.50;;;13.28;30.98
73629;BME280;61924;53.268;-2.458;2023-02-18T05:06:34;101250.76;;;13.81;30.73
73629;BME280;61924;53.268;-2.458;2023-02-18T05:08:59;101257.28;;;13.70;30.84
73629;BME280;61924;53.268;-2.458;2023-02-18T05:11:24;101251.40;;;13.82;30.80
73629;BME280;61924;53.268;-2.458;2023-02-18T05:13:49;101244.45;;;13.44;31.07
73629;BME280;61924;53.268;-2.458;2023-02-18T05:16:14;101250.82;;;13.03;31.05
73629;BME280;61924;53.268;-2.458;2023-02-18T05:18:40;101241.01;;;13.42;30.85
73629;BME280;61924;53.268;-2.458;2023-02-18T05:21:05;101243.16;;;14.07;30.54
73629;BME280;61924;53.268;-2.458;2023-02-18T05:23:30;101253.29;;;14.01;30.69
73629;BME280;61924;53.268;-2.458;2023-02-18T05:25:56;101249.12;;;13.95;30.72
73629;BME280;61924;53.268;-2.458;2023-02-18T05:28:21;101255.39;;;13.38;31.02
73629;BME280;61924;53.268;-2.458;2023-02-18T05:30:46;101251.59;;;13.39;30.82
73629;BME280;61924;53.268;-2.458;2023-02-18T05:33:12;101233.62;;;12.71;31.22
73629;BME280;61924;53.268;-2.458;2023-02-18T05:35:37;101238.49;;;12.89;31.14
73629;BME280;61924;53.268;-2.458;2023-02-18T05:38:03;101234.65;;;13.43;30.81
73629;BME280;61924;53.268;-2.458;2023-02-18T05:40:28;101232.98;;;13.23;30.93
73629;BME280;61924;53.268;-2.458;2023-02-18T05:42:54;101237.75;;;13.24;31.05
73629;BME280;61924;53.268;-2.458;2023-02-18T05:45:19;101247.19;;;13.28;30.90
73629;BME280;61924;53.268;-2.458;2023-02-18T05:47:45;101248.16;;;13.74;30.77
73629;BME280;61924;53.268;-2.458;2023-02-18T05:50:10;101246.29;;;13.59;30.72
73629;BME280;61924;53.268;-2.458;2023-02-18T05:52:36;101249.09;;;13.35;30.83
73629;BME280;61924;53.268;-2.458;2023-02-18T05:55:01;101253.71;;;13.36;30.87
73629;BME280;61924;53.268;-2.458;2023-02-18T05:57:26;101252.15;;;13.85;30.74
73629;BME280;61924;53.268;-2.458;2023-02-18T05:59:52;101257.77;;;13.58;30.72
73629;BME280;61924;53.268;-2.458;2023-02-18T06:02:18;101260.90;;;13.46;30.81
73629;BME280;61924;53.268;-2.458;2023-02-18T06:04:43;101267.91;;;13.60;30.70
73629;BME280;61924;53.268;-2.458;2023-02-18T06:07:08;101282.86;;;12.68;31.15
73629;BME280;61924;53.268;-2.458;2023-02-18T06:09:34;101293.20;;;13.11;30.97
73629;BME280;61924;53.268;-2.458;2023-02-18T06:12:00;101303.22;;;13.69;30.74
73629;BME280;61924;53.268;-2.458;2023-02-18T06:14:25;101302.80;;;13.67;30.67
73629;BME280;61924;53.268;-2.458;2023-02-18T06:16:50;101307.04;;;13.64;30.83
73629;BME280;61924;53.268;-2.458;2023-02-18T06:19:16;101311.18;;;13.69;30.79
73629;BME280;61924;53.268;-2.458;2023-02-18T06:21:41;101330.79;;;13.46;30.95
73629;BME280;61924;53.268;-2.458;2023-02-18T06:24:07;101315.14;;;13.56;30.87
73629;BME280;61924;53.268;-2.458;2023-02-18T06:26:32;101323.95;;;13.50;30.81
73629;BME280;61924;53.268;-2.458;2023-02-18T06:28:58;101327.73;;;13.43;30.75
73629;BME280;61924;53.268;-2.458;2023-02-18T06:31:24;101332.83;;;12.75;31.07
73629;BME280;61924;53.268;-2.458;2023-02-18T06:33:49;101345.36;;;13.36;30.95
73629;BME280;61924;53.268;-2.458;2023-02-18T06:36:15;101346.31;;;13.44;30.84
73629;BME280;61924;53.268;-2.458;2023-02-18T06:38:42;101342.69;;;12.87;31.15
73629;BME280;61924;53.268;-2.458;2023-02-18T06:41:06;101340.31;;;13.13;30.93
73629;BME280;61924;53.268;-2.458;2023-02-18T06:43:31;101341.27;;;13.86;30.67
73629;BME280;61924;53.268;-2.458;2023-02-18T06:45:57;101344.97;;;12.78;31.04
73629;BME280;61924;53.268;-2.458;2023-02-18T06:48:22;101346.34;;;13.03;30.90
73629;BME280;61924;53.268;-2.458;2023-02-18T06:50:47;101352.30;;;12.82;31.07
73629;BME280;61924;53.268;-2.458;2023-02-18T06:53:13;101350.57;;;12.55;31.29
73629;BME280;61924;53.268;-2.458;2023-02-18T06:55:38;101353.15;;;14.08;30.37
73629;BME280;61924;53.268;-2.458;2023-02-18T06:58:04;101347.91;;;13.32;31.12
73629;BME280;61924;53.268;-2.458;2023-02-18T07:00:29;101348.80;;;13.67;30.73
73629;BME280;61924;53.268;-2.458;2023-02-18T07:02:54;101347.78;;;13.89;30.60
73629;BME280;61924;53.268;-2.458;2023-02-18T07:05:19;101349.03;;;14.09;30.44
73629;BME280;61924;53.268;-2.458;2023-02-18T07:07:45;101355.36;;;14.62;30.33
73629;BME280;61924;53.268;-2.458;2023-02-18T07:10:11;101363.43;;;14.44;30.33
73629;BME280;61924;53.268;-2.458;2023-02-18T07:12:36;101366.22;;;14.70;30.34
73629;BME280;61924;53.268;-2.458;2023-02-18T07:15:02;101375.65;;;14.51;30.47
73629;BME280;61924;53.268;-2.458;2023-02-18T07:17:27;101376.89;;;14.53;30.50
73629;BME280;61924;53.268;-2.458;2023-02-18T07:19:52;101382.16;;;14.86;30.43
73629;BME280;61924;53.268;-2.458;2023-02-18T07:22:18;101388.77;;;15.13;30.42
73629;BME280;61924;53.268;-2.458;2023-02-18T07:24:43;101385.41;;;14.87;30.27
73629;BME280;61924;53.268;-2.458;2023-02-18T07:27:09;101382.39;;;15.21;30.34
73629;BME280;61924;53.268;-2.458;2023-02-18T07:29:34;101381.78;;;15.19;30.37
73629;BME280;61924;53.268;-2.458;2023-02-18T07:32:00;101383.11;;;15.19;30.38
73629;BME280;61924;53.268;-2.458;2023-02-18T07:34:25;101379.78;;;15.14;30.25
73629;BME280;61924;53.268;-2.458;2023-02-18T07:36:50;101369.77;;;14.95;30.25
73629;BME280;61924;53.268;-2.458;2023-02-18T07:39:16;101371.63;;;15.25;30.20
73629;BME280;61924;53.268;-2.458;2023-02-18T07:41:41;101369.21;;;15.40;30.22
73629;BME280;61924;53.268;-2.458;2023-02-18T07:44:06;101367.97;;;15.62;30.24
73629;BME280;61924;53.268;-2.458;2023-02-18T07:46:31;101370.16;;;15.54;30.18
73629;BME280;61924;53.268;-2.458;2023-02-18T07:48:57;101374.94;;;15.28;30.16
73629;BME280;61924;53.268;-2.458;2023-02-18T07:51:22;101381.41;;;15.45;30.04
73629;BME280;61924;53.268;-2.458;2023-02-18T07:53:48;101382.01;;;15.21;30.17
73629;BME280;61924;53.268;-2.458;2023-02-18T07:56:13;101384.87;;;15.20;30.23
73629;BME280;61924;53.268;-2.458;2023-02-18T07:58:39;101393.51;;;15.15;30.20
73629;BME280;61924;53.268;-2.458;2023-02-18T08:01:05;101389.97;;;15.42;30.17
73629;BME280;61924;53.268;-2.458;2023-02-18T08:03:31;101387.13;;;15.63;30.06
73629;BME280;61924;53.268;-2.458;2023-02-18T08:05:56;101388.14;;;14.92;30.37
73629;BME280;61924;53.268;-2.458;2023-02-18T08:08:22;101391.28;;;15.29;30.23
73629;BME280;61924;53.268;-2.458;2023-02-18T08:10:47;101393.29;;;15.27;30.52
73629;BME280;61924;53.268;-2.458;2023-02-18T08:13:12;101396.57;;;15.28;30.48
73629;BME280;61924;53.268;-2.458;2023-02-18T08:15:37;101399.12;;;15.64;30.31
73629;BME280;61924;53.268;-2.458;2023-02-18T08:18:03;101402.06;;;15.15;30.32
73629;BME280;61924;53.268;-2.458;2023-02-18T08:20:28;101405.13;;;15.61;30.33
73629;BME280;61924;53.268;-2.458;2023-02-18T08:22:54;101405.25;;;15.30;30.44
73629;BME280;61924;53.268;-2.458;2023-02-18T08:25:19;101407.55;;;15.57;30.24
73629;BME280;61924;53.268;-2.458;2023-02-18T08:27:44;101404.55;;;15.18;30.53
73629;BME280;61924;53.268;-2.458;2023-02-18T08:30:10;101404.90;;;15.27;30.34
73629;BME280;61924;53.268;-2.458;2023-02-18T08:32:35;101410.74;;;15.08;30.45
73629;BME280;61924;53.268;-2.458;2023-02-18T08:35:01;101415.43;;;14.97;30.53
73629;BME280;61924;53.268;-2.458;2023-02-18T08:37:26;101409.90;;;15.10;30.34
73629;BME280;61924;53.268;-2.458;2023-02-18T08:39:51;101409.25;;;15.50;30.24
73629;BME280;61924;53.268;-2.458;2023-02-18T08:42:17;101409.78;;;15.20;30.35
73629;BME280;61924;53.268;-2.458;2023-02-18T08:44:42;101411.13;;;15.12;30.39
73629;BME280;61924;53.268;-2.458;2023-02-18T08:47:08;101418.36;;;15.37;30.36
73629;BME280;61924;53.268;-2.458;2023-02-18T08:49:33;101413.12;;;15.67;30.24
73629;BME280;61924;53.268;-2.458;2023-02-18T08:51:59;101423.93;;;15.34;30.32
73629;BME280;61924;53.268;-2.458;2023-02-18T08:54:24;101420.73;;;15.48;30.16
73629;BME280;61924;53.268;-2.458;2023-02-18T08:56:53;101422.68;;;15.44;30.25
73629;BME280;61924;53.268;-2.458;2023-02-18T08:59:15;101420.77;;;15.33;30.19
73629;BME280;61924;53.268;-2.458;2023-02-18T09:01:40;101427.11;;;15.32;30.33
73629;BME280;61924;53.268;-2.458;2023-02-18T09:04:06;101427.75;;;15.43;30.30
73629;BME280;61924;53.268;-2.458;2023-02-18T09:06:35;101426.51;;;15.51;30.33
73629;BME280;61924;53.268;-2.458;2023-02-18T09:08:57;101431.78;;;15.61;30.23
73629;BME280;61924;53.268;-2.458;2023-02-18T09:11:22;101429.76;;;15.73;30.13
73629;BME280;61924;53.268;-2.458;2023-02-18T09:13:47;101430.70;;;15.15;30.35
73629;BME280;61924;53.268;-2.458;2023-02-18T09:16:16;101426.25;;;15.43;30.18
73629;BME280;61924;53.268;-2.458;2023-02-18T09:18:39;101430.72;;;15.35;30.22
73629;BME280;61924;53.268;-2.458;2023-02-18T09:21:07;101429.76;;;15.62;30.25
73629;BME280;61924;53.268;-2.458;2023-02-18T09:23:31;101427.84;;;15.31;30.32
73629;BME280;61924;53.268;-2.458;2023-02-18T09:25:56;101424.52;;;15.44;30.30
73629;BME280;61924;53.268;-2.458;2023-02-18T09:28:22;101425.93;;;15.54;30.13
73629;BME280;61924;53.268;-2.458;2023-02-18T09:30:46;101425.33;;;14.91;30.52
73629;BME280;61924;53.268;-2.458;2023-02-18T09:33:12;101422.92;;;15.56;30.18
73629;BME280;61924;53.268;-2.458;2023-02-18T09:35:39;101420.13;;;15.02;30.30
73629;BME280;61924;53.268;-2.458;2023-02-18T09:38:03;101417.22;;;15.32;30.19
73629;BME280;61924;53.268;-2.458;2023-02-18T09:40:31;101411.70;;;15.43;30.20
73629;BME280;61924;53.268;-2.458;2023-02-18T09:42:54;101416.34;;;15.37;30.29
73629;BME280;61924;53.268;-2.458;2023-02-18T09:45:19;101416.06;;;15.33;30.32
73629;BME280;61924;53.268;-2.458;2023-02-18T09:47:45;101418.15;;;15.50;30.16
73629;BME280;61924;53.268;-2.458;2023-02-18T09:50:16;101415.50;;;15.43;30.27
73629;BME280;61924;53.268;-2.458;2023-02-18T09:52:36;101409.30;;;15.53;30.27
73629;BME280;61924;53.268;-2.458;2023-02-18T09:55:06;101405.51;;;15.55;30.18
73629;BME280;61924;53.268;-2.458;2023-02-18T09:57:43;101401.15;;;15.15;30.32
73629;BME280;61924;53.268;-2.458;2023-02-18T09:59:59;101395.82;;;15.32;30.29
73629;BME280;61924;53.268;-2.458;2023-02-18T10:02:17;101393.83;;;15.19;30.35
73629;BME280;61924;53.268;-2.458;2023-02-18T10:04:44;101388.27;;;15.19;30.29
73629;BME280;61924;53.268;-2.458;2023-02-18T10:07:13;101389.16;;;15.73;30.20
73629;BME280;61924;53.268;-2.458;2023-02-18T10:09:35;101391.00;;;15.62;30.47
73629;BME280;61924;53.268;-2.458;2023-02-18T10:12:06;101392.04;;;15.57;30.27
73629;BME280;61924;53.268;-2.458;2023-02-18T10:14:25;101388.80;;;15.86;30.36
73629;BME280;61924;53.268;-2.458;2023-02-18T10:16:50;101397.79;;;15.20;30.34
73629;BME280;61924;53.268;-2.458;2023-02-18T10:19:22;101400.35;;;15.78;30.33
73629;BME280;61924;53.268;-2.458;2023-02-18T10:21:40;101417.54;;;15.42;30.30
73629;BME280;61924;53.268;-2.458;2023-02-18T10:26:32;101432.63;;;15.74;30.35
73629;BME280;61924;53.268;-2.458;2023-02-18T10:28:56;101433.68;;;15.50;30.41
73629;BME280;61924;53.268;-2.458;2023-02-18T10:31:26;101412.89;;;15.08;30.41
73629;BME280;61924;53.268;-2.458;2023-02-18T10:33:58;101411.38;;;15.07;30.41
73629;BME280;61924;53.268;-2.458;2023-02-18T10:36:22;101408.36;;;15.24;30.43
73629;BME280;61924;53.268;-2.458;2023-02-18T10:38:44;101407.32;;;15.30;30.31
73629;BME280;61924;53.268;-2.458;2023-02-18T10:41:11;101416.84;;;15.68;30.27
73629;BME280;61924;53.268;-2.458;2023-02-18T10:43:34;101415.43;;;15.23;30.41
73629;BME280;61924;53.268;-2.458;2023-02-18T10:45:56;101417.41;;;15.54;30.27
73629;BME280;61924;53.268;-2.458;2023-02-18T10:48:35;101419.39;;;15.70;30.29
73629;BME280;61924;53.268;-2.458;2023-02-18T10:50:46;101421.80;;;15.12;30.40
73629;BME280;61924;53.268;-2.458;2023-02-18T10:53:14;101418.97;;;15.37;30.24
73629;BME280;61924;53.268;-2.458;2023-02-18T10:55:39;101417.30;;;15.53;30.25
73629;BME280;61924;53.268;-2.458;2023-02-18T10:58:02;101419.28;;;15.57;30.23
73629;BME280;61924;53.268;-2.458;2023-02-18T11:00:34;101423.37;;;15.23;30.30
73629;BME280;61924;53.268;-2.458;2023-02-18T11:03:27;101425.05;;;15.14;30.35
73629;BME280;61924;53.268;-2.458;2023-02-18T11:05:22;101431.91;;;15.72;30.37
73629;BME280;61924;53.268;-2.458;2023-02-18T11:07:47;101436.96;;;15.10;30.46
73629;BME280;61924;53.268;-2.458;2023-02-18T11:10:15;101438.81;;;15.29;30.38
73629;BME280;61924;53.268;-2.458;2023-02-18T11:12:42;101442.79;;;15.76;30.21
73629;BME280;61924;53.268;-2.458;2023-02-18T11:15:14;101445.80;;;15.16;30.46
73629;BME280;61924;53.268;-2.458;2023-02-18T11:17:27;101440.75;;;14.94;30.48
73629;BME280;61924;53.268;-2.458;2023-02-18T11:19:54;101441.07;;;15.68;30.29
73629;BME280;61924;53.268;-2.458;2023-02-18T11:22:18;101444.16;;;15.43;30.38
73629;BME280;61924;53.268;-2.458;2023-02-18T11:24:41;101438.88;;;15.36;30.26
73629;BME280;61924;53.268;-2.458;2023-02-18T11:27:08;101448.90;;;15.07;30.35
73629;BME280;61924;53.268;-2.458;2023-02-18T11:29:32;101445.82;;;15.07;30.29
73629;BME280;61924;53.268;-2.458;2023-02-18T11:31:58;101444.54;;;15.24;30.28
73629;BME280;61924;53.268;-2.458;2023-02-18T11:34:26;101443.58;;;15.32;30.23
73629;BME280;61924;53.268;-2.458;2023-02-18T11:36:49;101444.23;;;15.38;30.02
73629;BME280;61924;53.268;-2.458;2023-02-18T11:39:19;101439.02;;;15.59;29.95
73629;BME280;61924;53.268;-2.458;2023-02-18T11:41:41;101437.37;;;15.89;30.00
73629;BME280;61924;53.268;-2.458;2023-02-18T11:44:06;101437.89;;;15.44;30.35
73629;BME280;61924;53.268;-2.458;2023-02-18T11:46:29;101447.11;;;15.27;30.31
73629;BME280;61924;53.268;-2.458;2023-02-18T11:48:55;101444.39;;;15.62;30.09
73629;BME280;61924;53.268;-2.458;2023-02-18T11:51:24;101443.61;;;15.62;30.25
73629;BME280;61924;53.268;-2.458;2023-02-18T11:54:04;101443.76;;;15.12;30.78
73629;BME280;61924;53.268;-2.458;2023-02-18T11:56:17;101448.80;;;14.45;31.90
73629;BME280;61924;53.268;-2.458;2023-02-18T11:58:40;101447.81;;;13.83;32.76
73629;BME280;61924;53.268;-2.458;2023-02-18T12:01:04;101448.84;;;14.82;32.48
73629;BME280;61924;53.268;-2.458;2023-02-18T12:03:32;101441.78;;;15.56;32.31
73629;BME280;61924;53.268;-2.458;2023-02-18T12:05:54;101447.92;;;15.04;32.34
73629;BME280;61924;53.268;-2.458;2023-02-18T12:08:23;101447.03;;;14.71;32.09
73629;BME280;61924;53.268;-2.458;2023-02-18T12:10:47;101451.52;;;14.31;32.41
73629;BME280;61924;53.268;-2.458;2023-02-18T12:13:20;101451.90;;;14.25;32.24
73629;BME280;61924;53.268;-2.458;2023-02-18T12:15:44;101452.70;;;13.97;32.21
73629;BME280;61924;53.268;-2.458;2023-02-18T12:18:10;101452.54;;;13.84;32.12
73629;BME280;61924;53.268;-2.458;2023-02-18T12:21:09;101458.93;;;14.06;31.74
73629;BME280;61924;53.268;-2.458;2023-02-18T12:22:55;101456.06;;;14.58;31.47
73629;BME280;61924;53.268;-2.458;2023-02-18T12:25:23;101452.35;;;14.39;31.65
73629;BME280;61924;53.268;-2.458;2023-02-18T12:27:47;101448.49;;;13.75;31.76
73629;BME280;61924;53.268;-2.458;2023-02-18T12:30:33;101448.57;;;13.73;31.50
73629;BME280;61924;53.268;-2.458;2023-02-18T12:32:38;101446.66;;;13.30;31.86
73629;BME280;61924;53.268;-2.458;2023-02-18T12:35:08;101450.36;;;13.76;31.47